Historyczne dane pomiarowe

Dodano dane terminowe – wersja testowa.

Dane z okresu 1951-2019

Wersja bazy: 1.34 [2019-03-16, lista zmian], aktualizacja planowana na 2019-04-15

Dane meteo z obszaru Polski uzyskane na podstawie danych udostępnionych przez Instytut Meteorologii i Gospodarki Wodnej – Państwowy Instytut Badawczy.

 

Wybierz Datę:    

       

TemperaturaWilgotnośćWiatrCiśnienieOpadyŚniegCzas trwania zjawisk
 Stacja t tx tn tng RH VA  wxwx mslp ppp RRR   cm mm wxwxwxwxwxwxwx
1999-08-14 16.8 21.8 12.7- 79.8- 5.0 1.0---- 0.1------------
1999-08-13 16.7 21.5 12.3- 80.8- 6.0 1.3---- 0.0------------
1999-08-12 15.7 21.6 11.9- 77.8- 8.0 0.3---- 0.3------------
1999-08-11 18.7 21.8 13.7- 83.8- 6.7 1.0---- 3.0------------
1999-08-10 20.2 28.0 13.3- 73.5- 0.7 0.7---- 0.0------------
1999-08-09 22.8 28.9 17.1- 73.5- 2.0 0.3---- 0.0------------
1999-08-08 21.0 26.9 16.3- 80.0- 4.0 0.3---- 2.2------------
1999-08-07 21.3 28.1 13.2- 66.3- 1.3 0.0---- 1.9------------
1999-08-06 20.7 30.0 12.0- 53.5- 0.0 1.0---- 0.0------------
1999-08-05 18.8 28.0 9.6- 66.5- 1.3 0.7---- 0.0------------
1999-08-04 19.1 27.0 10.5- 68.5- 0.0 0.3---- 0.0------------
1999-08-03 19.0 26.7 9.2- 59.5- 0.0 0.3---- 0.0------------
1999-08-02 19.2 25.9 12.1- 68.3- 0.7 0.7---- 0.0------------
1999-08-01 20.2 26.5 13.0- 68.3- 0.0 0.7---- 0.0------------
1999-07-31 20.2 26.4 13.8- 66.5- 0.0 1.3---- 0.0------------
1999-07-30 19.3 25.5 12.3- 79.5- 0.0 1.3---- 0.0------------
1999-07-29 18.8 24.4 12.1- 71.3- 0.0 1.7---- 0.0------------
1999-07-28 19.0 23.8 14.0- 53.0- 0.0 3.3---- 0.0------------
1999-07-27 17.4 21.8 11.3- 70.8- 1.0 1.0---- 0.0------------
1999-07-26 19.3 26.8 12.0- 71.3- 4.0 1.3---- 7.3------------
1999-07-25 19.2 25.5 12.3- 79.3- 7.0 0.7---- 0.0------------
1999-07-24 17.9 20.9 15.8- 79.3- 0.0 0.7---- 0.0------------
1999-07-23 17.4 21.9 11.8- 82.3- 0.0 0.7---- 0.0------------
1999-07-22 19.5 23.9 14.7- 70.8- 0.0 1.0---- 0.0------------
1999-07-21 21.7 28.0 13.6- 70.3- 0.0 1.0---- 0.6------------
1999-07-20 21.7 30.0 12.7- 73.5- 0.0 1.0---- 0.2------------
1999-07-19 20.5 27.0 13.1- 68.5- 0.3 0.3---- 0.0------------
1999-07-18 18.3 25.3 12.3- 87.8- 4.3 0.7---- 2.2------------
1999-07-17 16.8 23.1 9.8- 68.3- 6.7 2.7---- 2.6------------
1999-07-16 16.4 20.5 11.6- 87.3- 2.3 1.7---- 0.0------------
1999-07-15 16.5 20.9 13.7- 82.5- 8.0 2.7---- 2.6------------
1999-07-14 19.4 22.7 17.1- 83.8- 5.7 2.7---- 23.1------------
1999-07-13 21.4 28.1 14.8- 68.0- 1.0 0.3---- 0.0------------
1999-07-12 21.8 27.4 12.7- 57.5- 1.3 1.7---- 0.0------------
1999-07-11 21.2 27.0 13.2- 63.0- 0.0 1.7---- 0.0------------
1999-07-10 20.3 25.2 14.0- 64.0- 0.7 3.0---- 0.0------------
1999-07-09 19.9 23.8 14.7- 77.5- 0.7 2.7---- 0.0------------
1999-07-08 19.5 24.8 15.4- 82.0- 7.7 2.3---- 1.0------------
1999-07-07 19.7 24.1 16.3- 81.5- 7.7 0.7---- 0.0------------
1999-07-06 24.6 30.9 18.4- 67.3- 5.0 2.7---- 13.8------------
1999-07-05 25.0 32.0 17.2- 61.0- 0.7 1.7---- 0.0------------
1999-07-04 24.4 30.4 16.0- 64.8- 2.3 1.7---- 0.0------------
1999-07-03 20.3 25.4 12.8- 77.8- 0.3 0.7---- 0.0------------
1999-07-02 19.0 21.9 17.0- 76.8- 5.0 1.0---- 0.0------------
1999-07-01 19.6 26.4 12.3- 80.3- 4.0 0.3---- 0.5------------
1999-06-30 18.9 24.3 11.7- 63.0- 0.0 0.7---- 0.0------------
1999-06-29 19.8 25.3 15.9- 70.5- 1.3 0.3---- 0.0------------
1999-06-28 21.6 27.9 12.0- 59.3- 0.0 1.7---- 11.0------------
1999-06-27 19.7 25.4 12.6- 59.5- 0.7 2.0---- 0.0------------
1999-06-26 14.1 18.8 8.1- 76.5- 0.3 0.7---- 0.0------------
1999-06-25 14.0 16.9 9.6- 84.0- 6.7 0.7---- 4.0------------
1999-06-24 12.7 18.2 7.8- 77.3- 5.7 0.3---- 1.4------------
1999-06-23 11.2 13.9 9.1- 76.8- 8.0 3.3---- 5.9------------
1999-06-22 12.5 16.7 10.4- 84.8- 8.0 4.0---- 10.2------------
1999-06-21 17.6 22.8 13.3- 83.0- 8.0 0.0---- 1.2------------
1999-06-20 18.3 24.0 13.9- 86.8- 6.3 0.3---- 0.0------------
1999-06-19 19.6 24.9 15.0- 77.8- 6.7 0.0---- 11.8------------
1999-06-18 18.5 21.5 15.5- 69.8- 6.3 2.0---- 0.0------------
1999-06-17 18.1 21.8 14.7- 81.0- 8.0 0.3---- 0.0------------
1999-06-16 17.6 21.0 14.9- 89.0- 8.0 2.0---- 0.5------------
485.6 ms

 

Źródłem pochodzenia danych jest Instytut Meteorologii i Gospodarki Wodnej – Państwowy Instytut Badawczy. Dane Instytutu Meteorologii i Gospodarki Wodnej – Państwowego Instytutu Badawczego zostały przetworzone.

Dane źródłowe można odnaleźć na stronie https://dane.imgw.pl